Time;durP1;ratioP1;P1;durP2;ratioP2;P2;SDS_P1;SDS_P2;PMS_P1;PMS_P2;Temp;Humidity;BMP_temperature;BMP_pressure;BME280_temperature;BME280_humidity;BME280_pressure;Samples;Min_cycle;Max_cycle;Signal;HPM_P1;HPM_P2
2022/04/05 00:02:01;;;;;;;26.20;2.42;;;;;;;;;;5055263;28;20042;-61
2022/04/05 00:04:27;;;;;;;30.35;3.45;;;;;;;;;;5035953;28;20037;-63
2022/04/05 00:06:53;;;;;;;32.50;2.92;;;;;;;;;;5035674;28;20155;-61
2022/04/05 00:09:19;;;;;;;25.48;3.05;;;;;;;;;;5054071;28;20437;-61
2022/04/05 00:11:45;;;;;;;31.13;2.92;;;;;;;;;;5053854;28;20488;-60
2022/04/05 00:14:14;;;;;;;32.63;3.47;;;;;;;;;;5050592;28;20076;-60
2022/04/05 00:16:40;;;;;;;23.23;2.47;;;;;;;;;;5043395;28;20099;-61
2022/04/05 00:19:06;;;;;;;33.63;3.80;;;;;;;;;;5051255;28;20040;-61
2022/04/05 00:21:32;;;;;;;36.47;3.33;;;;;;;;;;5052236;28;20057;-61
2022/04/05 00:23:58;;;;;;;34.38;3.38;;;;;;;;;;5051302;28;20041;-61
2022/04/05 00:26:24;;;;;;;28.13;2.80;;;;;;;;;;5036845;28;20045;-62
2022/04/05 00:28:50;;;;;;;36.47;3.95;;;;;;;;;;5050536;28;20124;-62
2022/04/05 00:31:16;;;;;;;38.88;3.95;;;;;;;;;;5033162;28;20095;-60
2022/04/05 00:33:42;;;;;;;27.58;2.90;;;;;;;;;;5052509;28;20045;-60
2022/04/05 00:36:09;;;;;;;41.85;3.85;;;;;;;;;;5048382;28;20332;-61
2022/04/05 00:38:35;;;;;;;31.83;4.07;;;;;;;;;;5049420;28;20041;-61
2022/04/05 00:41:01;;;;;;;30.95;3.45;;;;;;;;;;5051000;28;20482;-62
2022/04/05 00:43:27;;;;;;;26.55;2.92;;;;;;;;;;5049683;28;20043;-61
2022/04/05 00:45:55;;;;;;;32.55;3.03;;;;;;;;;;5054001;28;20040;-61
2022/04/05 00:48:29;;;;;;;30.85;3.03;;;;;;;;;;5050634;28;20048;-62
2022/04/05 00:50:56;;;;;;;27.25;2.60;;;;;;;;;;5050681;28;20124;-61
2022/04/05 00:53:24;;;;;;;15.98;1.65;;;;;;;;;;5050727;28;20064;-61
2022/04/05 00:55:52;;;;;;;18.75;1.85;;;;;;;;;;5048560;28;20128;-62
2022/04/05 00:58:19;;;;;;;26.75;2.38;;;;;;;;;;5050097;28;20207;-61
2022/04/05 01:00:47;;;;;;;24.50;1.85;;;;;;;;;;5050210;28;20469;-61
2022/04/05 01:03:14;;;;;;;21.27;1.90;;;;;;;;;;5046319;28;20040;-61
2022/04/05 01:05:40;;;;;;;17.40;1.40;;;;;;;;;;5050760;28;20447;-61
2022/04/05 01:08:07;;;;;;;20.90;2.08;;;;;;;;;;5049176;28;20230;-62
2022/04/05 01:10:34;;;;;;;21.73;1.70;;;;;;;;;;5049312;28;20033;-60
2022/04/05 01:13:00;;;;;;;19.55;1.77;;;;;;;;;;5050007;28;20201;-61
2022/04/05 01:15:26;;;;;;;26.08;2.20;;;;;;;;;;5051015;28;20079;-61
2022/04/05 01:17:55;;;;;;;17.40;1.45;;;;;;;;;;5050697;28;20047;-61
2022/04/05 01:20:21;;;;;;;23.90;2.13;;;;;;;;;;5053225;28;20052;-60
2022/04/05 01:22:48;;;;;;;19.00;1.90;;;;;;;;;;5051974;28;20426;-61
2022/04/05 01:25:15;;;;;;;17.50;1.52;;;;;;;;;;5052768;28;20512;-60
2022/04/05 01:27:41;;;;;;;19.55;1.50;;;;;;;;;;5047507;28;20399;-61
2022/04/05 01:30:07;;;;;;;22.10;2.33;;;;;;;;;;5047113;28;20116;-62
2022/04/05 01:32:34;;;;;;;22.33;1.88;;;;;;;;;;5060772;28;20566;-62
2022/04/05 01:35:01;;;;;;;24.52;2.55;;;;;;;;;;5052525;28;20116;-62
2022/04/05 01:37:27;;;;;;;17.88;1.70;;;;;;;;;;5048053;28;20044;-62
2022/04/05 01:39:53;;;;;;;28.25;2.35;;;;;;;;;;5045960;28;20044;-61
2022/04/05 01:42:19;;;;;;;20.13;1.92;;;;;;;;;;5046789;28;20037;-63
2022/04/05 01:44:45;;;;;;;30.85;2.50;;;;;;;;;;5052021;28;20047;-62
2022/04/05 01:47:12;;;;;;;25.02;1.95;;;;;;;;;;5048624;28;20036;-61
2022/04/05 01:49:39;;;;;;;23.15;2.00;;;;;;;;;;5032849;28;20067;-61
2022/04/05 01:52:06;;;;;;;27.13;2.08;;;;;;;;;;5048213;28;20041;-62
2022/04/05 01:54:32;;;;;;;21.52;1.80;;;;;;;;;;5047935;28;20057;-62
2022/04/05 01:56:59;;;;;;;19.92;1.35;;;;;;;;;;5049867;28;20049;-60
2022/04/05 01:59:26;;;;;;;27.40;2.05;;;;;;;;;;5046422;28;20060;-61
2022/04/05 02:01:53;;;;;;;23.45;2.00;;;;;;;;;;5049207;28;20076;-60
2022/04/05 02:04:19;;;;;;;19.00;1.52;;;;;;;;;;5047110;28;20037;-63
2022/04/05 02:06:45;;;;;;;28.48;1.75;;;;;;;;;;5045650;28;20057;-61
2022/04/05 02:09:15;;;;;;;26.50;2.05;;;;;;;;;;5029298;28;20128;-61
2022/04/05 02:11:42;;;;;;;22.83;1.52;;;;;;;;;;5045398;28;20048;-62
2022/04/05 02:14:08;;;;;;;25.17;1.90;;;;;;;;;;5048534;28;20406;-61
2022/04/05 02:16:34;;;;;;;23.30;1.73;;;;;;;;;;5049127;28;20047;-60
2022/04/05 02:19:00;;;;;;;15.98;1.27;;;;;;;;;;5048121;28;20036;-61
2022/04/05 02:21:26;;;;;;;22.98;2.58;;;;;;;;;;5055311;28;20041;-60
2022/04/05 02:23:54;;;;;;;19.70;1.67;;;;;;;;;;5049524;28;20444;-60
2022/04/05 02:26:20;;;;;;;20.77;2.58;;;;;;;;;;5054041;28;20479;-61
2022/04/05 02:28:47;;;;;;;21.67;1.63;;;;;;;;;;5046961;28;20044;-61
2022/04/05 02:31:14;;;;;;;22.92;1.63;;;;;;;;;;5046929;28;20041;-61
2022/04/05 02:33:40;;;;;;;19.48;1.70;;;;;;;;;;5048468;28;20028;-61
2022/04/05 02:36:07;;;;;;;23.00;1.70;;;;;;;;;;5047931;28;20083;-60
2022/04/05 02:38:33;;;;;;;20.33;1.67;;;;;;;;;;5048909;28;20505;-62
2022/04/05 02:41:01;;;;;;;23.58;1.80;;;;;;;;;;5028648;28;20509;-61
2022/04/05 02:43:27;;;;;;;20.08;1.35;;;;;;;;;;5028490;28;20573;-62
2022/04/05 02:45:56;;;;;;;22.05;1.50;;;;;;;;;;5030720;28;20056;-62
2022/04/05 02:48:23;;;;;;;18.90;1.52;;;;;;;;;;5031445;28;20554;-61
2022/04/05 02:50:49;;;;;;;18.67;1.40;;;;;;;;;;5051987;28;20498;-61
2022/04/05 02:53:15;;;;;;;16.05;1.40;;;;;;;;;;5046659;28;20087;-61
2022/04/05 02:55:45;;;;;;;21.70;1.30;;;;;;;;;;5046215;28;20060;-61
2022/04/05 02:58:11;;;;;;;20.15;1.58;;;;;;;;;;5044352;28;20047;-60
2022/04/05 03:00:38;;;;;;;18.63;1.60;;;;;;;;;;5048069;28;20040;-61
2022/04/05 03:03:04;;;;;;;21.10;1.33;;;;;;;;;;5053023;28;20508;-62
2022/04/05 03:05:30;;;;;;;17.67;1.40;;;;;;;;;;5048226;28;20566;-62
2022/04/05 03:07:56;;;;;;;19.55;1.88;;;;;;;;;;5050947;28;20048;-62
2022/04/05 03:10:23;;;;;;;18.15;1.35;;;;;;;;;;5051796;28;20045;-62
2022/04/05 03:12:49;;;;;;;18.95;1.50;;;;;;;;;;5050362;28;20032;-62
2022/04/05 03:15:15;;;;;;;17.35;1.20;;;;;;;;;;5032552;28;20103;-61
2022/04/05 03:17:42;;;;;;;18.35;1.05;;;;;;;;;;5049741;28;20051;-63
2022/04/05 03:20:10;;;;;;;21.85;1.25;;;;;;;;;;5037179;28;20029;-62
2022/04/05 03:22:36;;;;;;;11.95;0.85;;;;;;;;;;5032422;28;20454;-62
2022/04/05 03:25:02;;;;;;;17.55;1.40;;;;;;;;;;5050540;28;20486;-61
2022/04/05 03:27:28;;;;;;;19.60;1.65;;;;;;;;;;5036920;28;20053;-62
2022/04/05 03:29:54;;;;;;;17.30;1.58;;;;;;;;;;5031409;28;20394;-61
2022/04/05 03:32:20;;;;;;;16.83;1.70;;;;;;;;;;5048734;28;20037;-60
2022/04/05 03:34:49;;;;;;;23.98;2.15;;;;;;;;;;5052323;28;20029;-62
2022/04/05 03:37:15;;;;;;;19.25;1.65;;;;;;;;;;5046897;28;21291;-62
2022/04/05 03:39:42;;;;;;;16.08;1.73;;;;;;;;;;5049605;28;20086;-62
2022/04/05 03:42:08;;;;;;;22.45;1.98;;;;;;;;;;5030774;28;20037;-64
2022/04/05 03:44:34;;;;;;;20.40;1.60;;;;;;;;;;5048785;28;20041;-61
2022/04/05 03:47:01;;;;;;;24.55;1.83;;;;;;;;;;5052130;28;20048;-61
2022/04/05 03:49:27;;;;;;;27.75;2.00;;;;;;;;;;5049437;28;20040;-61
2022/04/05 03:51:53;;;;;;;22.80;2.22;;;;;;;;;;5050900;28;20130;-61
2022/04/05 03:54:19;;;;;;;18.00;1.48;;;;;;;;;;5051308;28;20045;-62
2022/04/05 03:56:45;;;;;;;17.15;1.55;;;;;;;;;;5047405;28;20042;-62
2022/04/05 03:59:11;;;;;;;20.80;1.80;;;;;;;;;;5049012;28;20149;-62
2022/04/05 04:01:37;;;;;;;22.02;1.85;;;;;;;;;;5051036;28;20078;-61
2022/04/05 04:04:03;;;;;;;22.40;2.17;;;;;;;;;;5031265;28;20045;-63
2022/04/05 04:06:29;;;;;;;22.35;2.00;;;;;;;;;;5050759;28;20037;-61
2022/04/05 04:08:56;;;;;;;20.65;1.65;;;;;;;;;;5060623;28;20491;-61
2022/04/05 04:11:22;;;;;;;25.42;2.47;;;;;;;;;;5052471;28;20048;-61
2022/04/05 04:13:48;;;;;;;18.90;1.55;;;;;;;;;;5055268;28;20122;-59
2022/04/05 04:16:14;;;;;;;25.38;2.05;;;;;;;;;;5034493;28;20491;-61
2022/04/05 04:18:40;;;;;;;22.17;1.65;;;;;;;;;;5033244;28;20127;-60
2022/04/05 04:21:06;;;;;;;19.92;1.90;;;;;;;;;;5054638;28;20041;-61
2022/04/05 04:23:32;;;;;;;21.52;1.60;;;;;;;;;;5055952;28;20036;-60
2022/04/05 04:25:58;;;;;;;27.50;2.20;;;;;;;;;;5053936;28;20426;-60
2022/04/05 04:28:24;;;;;;;14.88;1.20;;;;;;;;;;5050428;28;20102;-61
2022/04/05 04:30:50;;;;;;;21.50;1.60;;;;;;;;;;5050089;28;20037;-62
2022/04/05 04:33:16;;;;;;;22.92;1.85;;;;;;;;;;5053291;28;20533;-60
2022/04/05 04:35:43;;;;;;;24.02;1.73;;;;;;;;;;5049202;28;20463;-60
2022/04/05 04:38:09;;;;;;;17.10;2.15;;;;;;;;;;5051396;28;20041;-59
2022/04/05 04:40:36;;;;;;;17.05;1.40;;;;;;;;;;5050632;28;20130;-60
2022/04/05 04:43:02;;;;;;;17.38;1.50;;;;;;;;;;5048822;28;20033;-61
2022/04/05 04:45:31;;;;;;;15.40;1.60;;;;;;;;;;5053842;28;20037;-60
2022/04/05 04:47:57;;;;;;;22.67;1.67;;;;;;;;;;5050328;28;20459;-60
2022/04/05 04:50:23;;;;;;;21.02;1.90;;;;;;;;;;5051490;28;20041;-61
2022/04/05 04:52:49;;;;;;;24.55;2.17;;;;;;;;;;5052068;28;20040;-61
2022/04/05 04:55:15;;;;;;;29.58;2.50;;;;;;;;;;5048400;28;20056;-61
2022/04/05 04:57:41;;;;;;;18.83;1.63;;;;;;;;;;5048692;28;20036;-64
2022/04/05 05:00:08;;;;;;;19.00;2.30;;;;;;;;;;5030222;28;20040;-62
2022/04/05 05:02:50;;;;;;;20.58;2.15;;;;;;;;;;5046472;28;20548;-63
2022/04/05 05:05:17;;;;;;;26.52;2.90;;;;;;;;;;5048750;28;20402;-62
2022/04/05 05:07:44;;;;;;;24.77;2.40;;;;;;;;;;5029524;28;20128;-62
2022/04/05 05:10:11;;;;;;;24.75;1.80;;;;;;;;;;5046148;28;20036;-62
2022/04/05 05:12:40;;;;;;;27.30;1.95;;;;;;;;;;5048898;28;20050;-63
2022/04/05 05:15:08;;;;;;;23.35;3.17;;;;;;;;;;5031933;28;20060;-62
2022/04/05 05:17:34;;;;;;;32.95;3.25;;;;;;;;;;5030817;28;20108;-62
2022/04/05 05:20:00;;;;;;;31.90;2.67;;;;;;;;;;5046764;28;20076;-62
2022/04/05 05:22:26;;;;;;;30.33;2.58;;;;;;;;;;5046624;28;20079;-62
2022/04/05 05:24:52;;;;;;;28.58;2.45;;;;;;;;;;5046225;28;20037;-62
2022/04/05 05:27:18;;;;;;;17.58;1.85;;;;;;;;;;5048053;28;20380;-62
2022/04/05 05:29:44;;;;;;;28.55;2.13;;;;;;;;;;5046636;28;20489;-62
2022/04/05 05:32:10;;;;;;;23.83;2.15;;;;;;;;;;5048365;28;20044;-63
2022/04/05 05:34:37;;;;;;;25.77;2.08;;;;;;;;;;5048043;28;20041;-62
2022/04/05 05:37:05;;;;;;;29.27;2.13;;;;;;;;;;5047566;28;20103;-62
2022/04/05 05:39:31;;;;;;;24.00;2.20;;;;;;;;;;5047227;28;20613;-62
2022/04/05 05:41:58;;;;;;;21.52;1.58;;;;;;;;;;5031406;28;20136;-62
2022/04/05 05:44:24;;;;;;;25.38;2.17;;;;;;;;;;5050777;28;20376;-63
2022/04/05 05:46:50;;;;;;;26.02;2.50;;;;;;;;;;5048330;28;20051;-61
2022/04/05 05:49:17;;;;;;;25.00;2.13;;;;;;;;;;5047587;28;20052;-62
2022/04/05 05:51:43;;;;;;;24.58;1.77;;;;;;;;;;5048929;28;20045;-61
2022/04/05 05:54:09;;;;;;;26.85;2.33;;;;;;;;;;5047194;28;20124;-60
2022/04/05 05:56:35;;;;;;;26.17;1.90;;;;;;;;;;5046699;28;20102;-61
2022/04/05 05:59:01;;;;;;;21.52;1.48;;;;;;;;;;5046476;28;20044;-61
2022/04/05 06:01:27;;;;;;;18.27;2.00;;;;;;;;;;5049158;28;20121;-63
2022/04/05 06:03:53;;;;;;;20.60;1.63;;;;;;;;;;5046199;28;20036;-61
2022/04/05 06:06:21;;;;;;;23.90;2.00;;;;;;;;;;5046286;28;20499;-61
2022/04/05 06:08:47;;;;;;;20.70;1.55;;;;;;;;;;5043590;28;20040;-61
2022/04/05 06:11:13;;;;;;;24.73;2.03;;;;;;;;;;5046154;28;20040;-62
2022/04/05 06:13:40;;;;;;;18.60;1.77;;;;;;;;;;5047562;28;20036;-61
2022/04/05 06:16:08;;;;;;;21.90;1.80;;;;;;;;;;5046211;28;20044;-61
2022/04/05 06:18:34;;;;;;;13.93;1.20;;;;;;;;;;5047685;28;20040;-60
2022/04/05 06:21:00;;;;;;;23.42;2.42;;;;;;;;;;5048980;28;20487;-60
2022/04/05 06:23:26;;;;;;;20.70;2.28;;;;;;;;;;5048552;28;20316;-61
2022/04/05 06:25:52;;;;;;;20.25;2.17;;;;;;;;;;5027708;28;20542;-61
2022/04/05 06:28:19;;;;;;;24.45;1.58;;;;;;;;;;5047031;28;20036;-61
2022/04/05 06:30:46;;;;;;;16.90;1.45;;;;;;;;;;5046666;28;20390;-62
2022/04/05 06:33:24;;;;;;;21.25;2.67;;;;;;;;;;5044860;28;20048;-62
2022/04/05 06:35:51;;;;;;;16.80;1.38;;;;;;;;;;5044961;28;20049;-62
2022/04/05 06:38:17;;;;;;;23.80;2.10;;;;;;;;;;5045254;28;20096;-62
2022/04/05 06:40:44;;;;;;;25.48;2.38;;;;;;;;;;5045665;28;20102;-62
2022/04/05 06:43:11;;;;;;;17.77;1.67;;;;;;;;;;5046337;28;20056;-63
2022/04/05 06:45:37;;;;;;;20.30;1.70;;;;;;;;;;5043470;28;20059;-63
2022/04/05 06:48:03;;;;;;;17.10;1.42;;;;;;;;;;5048255;28;20052;-62
2022/04/05 06:50:38;;;;;;;19.88;1.70;;;;;;;;;;5048235;28;20112;-61
2022/04/05 06:53:05;;;;;;;24.67;2.03;;;;;;;;;;5046535;28;20135;-61
2022/04/05 06:55:31;;;;;;;15.45;1.50;;;;;;;;;;5045975;28;20387;-61
2022/04/05 06:57:58;;;;;;;23.77;1.95;;;;;;;;;;5064368;28;20049;-60
2022/04/05 07:00:25;;;;;;;20.95;1.67;;;;;;;;;;5052405;28;20076;-61
2022/04/05 07:02:52;;;;;;;24.83;2.38;;;;;;;;;;5030669;28;20145;-60
2022/04/05 07:05:18;;;;;;;16.40;1.90;;;;;;;;;;5048749;28;20503;-60
2022/04/05 07:07:44;;;;;;;22.60;2.17;;;;;;;;;;5030413;28;20037;-60
2022/04/05 07:10:12;;;;;;;17.42;1.58;;;;;;;;;;5046721;28;20576;-61
2022/04/05 07:12:38;;;;;;;22.42;2.33;;;;;;;;;;5048168;28;20077;-60
2022/04/05 07:15:05;;;;;;;18.20;1.33;;;;;;;;;;5047900;28;20451;-61
2022/04/05 07:17:31;;;;;;;21.33;2.30;;;;;;;;;;5047050;28;20131;-61
2022/04/05 07:19:57;;;;;;;24.88;2.42;;;;;;;;;;5046758;28;20136;-61
2022/04/05 07:22:25;;;;;;;19.38;1.98;;;;;;;;;;5048051;28;20033;-61
2022/04/05 07:24:52;;;;;;;24.63;2.28;;;;;;;;;;5051327;28;20045;-61
2022/04/05 07:27:18;;;;;;;25.00;2.13;;;;;;;;;;5045868;28;20064;-62
2022/04/05 07:29:44;;;;;;;23.77;2.47;;;;;;;;;;5032161;28;20037;-61
2022/04/05 07:32:10;;;;;;;19.77;1.55;;;;;;;;;;5046576;28;20533;-61
2022/04/05 07:34:36;;;;;;;26.55;2.08;;;;;;;;;;5044621;28;20112;-61
2022/04/05 07:37:02;;;;;;;17.27;1.98;;;;;;;;;;5027338;28;20410;-61
2022/04/05 07:39:29;;;;;;;14.50;1.10;;;;;;;;;;5050851;28;20049;-62
2022/04/05 07:41:55;;;;;;;22.08;1.83;;;;;;;;;;5029593;28;20453;-62
2022/04/05 07:44:21;;;;;;;21.55;1.90;;;;;;;;;;5046398;28;20053;-61
2022/04/05 07:46:47;;;;;;;16.80;1.45;;;;;;;;;;5049452;28;20147;-62
2022/04/05 07:49:13;;;;;;;22.63;1.90;;;;;;;;;;5047965;28;20044;-61
2022/04/05 07:51:40;;;;;;;19.85;2.05;;;;;;;;;;5039457;28;20069;-61
2022/04/05 07:54:06;;;;;;;18.52;1.70;;;;;;;;;;5049393;28;20422;-62
2022/04/05 07:56:32;;;;;;;21.13;2.28;;;;;;;;;;5036717;28;20058;-61
2022/04/05 07:58:59;;;;;;;19.55;2.10;;;;;;;;;;5047991;28;20044;-62
2022/04/05 08:01:29;;;;;;;20.60;2.30;;;;;;;;;;5049223;28;20120;-62
2022/04/05 08:03:55;;;;;;;19.58;2.25;;;;;;;;;;5050298;28;20041;-62
2022/04/05 08:06:21;;;;;;;25.75;2.17;;;;;;;;;;5049650;28;20483;-62
2022/04/05 08:08:47;;;;;;;21.40;2.85;;;;;;;;;;5050689;28;20119;-61
2022/04/05 08:11:13;;;;;;;22.60;1.75;;;;;;;;;;5031594;28;20052;-60
2022/04/05 08:13:39;;;;;;;19.15;1.90;;;;;;;;;;5052870;28;20112;-60
2022/04/05 08:16:05;;;;;;;13.27;1.55;;;;;;;;;;5034808;28;20043;-60
2022/04/05 08:18:31;;;;;;;18.80;1.60;;;;;;;;;;5052771;28;20120;-59
2022/04/05 08:20:57;;;;;;;21.50;1.95;;;;;;;;;;5052204;28;20091;-61
2022/04/05 08:23:23;;;;;;;16.77;1.30;;;;;;;;;;5050704;28;20425;-61
2022/04/05 08:25:50;;;;;;;16.27;1.70;;;;;;;;;;5049241;28;20102;-61
2022/04/05 08:28:16;;;;;;;19.05;1.73;;;;;;;;;;5049028;28;20048;-62
2022/04/05 08:30:42;;;;;;;17.48;1.90;;;;;;;;;;5049782;28;20364;-61
2022/04/05 08:33:08;;;;;;;17.33;1.50;;;;;;;;;;5048792;28;20057;-61
2022/04/05 08:35:34;;;;;;;19.30;1.80;;;;;;;;;;5050526;28;20518;-60
2022/04/05 08:38:00;;;;;;;20.17;1.83;;;;;;;;;;5048787;28;20049;-62
2022/04/05 08:40:27;;;;;;;16.70;1.67;;;;;;;;;;5045937;28;20044;-62
2022/04/05 08:42:55;;;;;;;19.95;2.22;;;;;;;;;;5048945;28;20089;-63
2022/04/05 08:45:21;;;;;;;18.48;2.28;;;;;;;;;;5049531;28;20056;-63
2022/04/05 08:48:13;;;;;;;16.52;2.28;;;;;;;;;;5048280;28;20037;-62
2022/04/05 08:50:40;;;;;;;22.63;2.13;;;;;;;;;;5049475;28;20471;-61
2022/04/05 08:53:06;;;;;;;17.05;2.55;;;;;;;;;;5048552;28;20407;-62
2022/04/05 08:55:32;;;;;;;14.70;1.05;;;;;;;;;;5049621;28;20057;-60
2022/04/05 08:57:58;;;;;;;17.77;2.05;;;;;;;;;;5047813;28;20130;-62
2022/04/05 09:00:24;;;;;;;14.10;1.55;;;;;;;;;;5032431;28;20048;-61
2022/04/05 09:02:54;;;;;;;14.48;2.30;;;;;;;;;;5033609;28;20048;-61
2022/04/05 09:05:27;;;;;;;15.80;1.70;;;;;;;;;;5050613;28;20039;-61
2022/04/05 09:07:53;;;;;;;14.13;1.35;;;;;;;;;;5051850;28;20040;-60
2022/04/05 09:10:19;;;;;;;10.95;1.30;;;;;;;;;;5050402;28;20037;-60
2022/04/05 09:12:47;;;;;;;15.68;1.35;;;;;;;;;;5051509;28;20064;-60
2022/04/05 09:15:16;;;;;;;17.25;1.67;;;;;;;;;;5050968;28;20097;-61
2022/04/05 09:17:43;;;;;;;16.55;1.65;;;;;;;;;;5051635;28;20497;-60
2022/04/05 09:20:10;;;;;;;8.40;1.00;;;;;;;;;;5051355;28;20450;-61
2022/04/05 09:22:36;;;;;;;7.70;1.00;;;;;;;;;;5048591;28;20133;-61
2022/04/05 09:25:07;;;;;;;9.75;1.20;;;;;;;;;;5049196;28;20048;-62
2022/04/05 09:27:48;;;;;;;12.15;1.25;;;;;;;;;;5047797;28;20053;-61
2022/04/05 09:30:19;;;;;;;13.15;1.42;;;;;;;;;;5048258;28;20138;-62
2022/04/05 09:32:48;;;;;;;13.07;1.60;;;;;;;;;;5049484;28;20091;-61
2022/04/05 09:35:19;;;;;;;12.43;1.52;;;;;;;;;;5047519;28;20509;-62
2022/04/05 09:37:45;;;;;;;11.02;1.30;;;;;;;;;;5048944;28;20037;-61
2022/04/05 09:40:34;;;;;;;12.73;1.20;;;;;;;;;;5047360;28;20487;-61
2022/04/05 09:43:10;;;;;;;13.82;1.65;;;;;;;;;;5049120;28;20092;-61
2022/04/05 09:45:47;;;;;;;17.95;2.05;;;;;;;;;;5048641;28;20044;-61
2022/04/05 09:48:14;;;;;;;13.18;1.90;;;;;;;;;;5047622;28;20136;-61
2022/04/05 09:50:59;;;;;;;14.95;2.20;;;;;;;;;;5047077;28;20048;-62
2022/04/05 09:53:26;;;;;;;16.30;2.03;;;;;;;;;;5047701;28;20041;-61
2022/04/05 09:56:14;;;;;;;16.77;2.10;;;;;;;;;;5046897;28;20057;-61
2022/04/05 09:58:50;;;;;;;13.02;1.60;;;;;;;;;;5048709;28;20094;-61
2022/04/05 10:01:17;;;;;;;17.67;1.92;;;;;;;;;;5048746;28;20059;-62
2022/04/05 10:03:44;;;;;;;18.35;1.70;;;;;;;;;;5048857;28;20055;-61
2022/04/05 10:06:10;;;;;;;18.42;1.67;;;;;;;;;;5047951;28;20499;-63
2022/04/05 10:08:37;;;;;;;16.85;1.33;;;;;;;;;;5028229;28;20112;-62
2022/04/05 10:11:04;;;;;;;13.43;1.25;;;;;;;;;;5045501;28;20406;-61
2022/04/05 10:13:31;;;;;;;16.48;1.27;;;;;;;;;;5046974;28;20120;-62
2022/04/05 10:15:57;;;;;;;16.10;1.42;;;;;;;;;;5047004;28;20368;-61
2022/04/05 10:18:32;;;;;;;14.90;1.15;;;;;;;;;;5047382;28;20067;-59
2022/04/05 10:20:58;;;;;;;17.27;1.23;;;;;;;;;;5046662;28;20930;-62
2022/04/05 10:23:24;;;;;;;12.52;1.00;;;;;;;;;;5048352;28;20090;-61
2022/04/05 10:25:51;;;;;;;15.98;1.17;;;;;;;;;;5042788;28;20044;-61
2022/04/05 10:28:20;;;;;;;9.75;0.90;;;;;;;;;;5048084;28;20051;-63
2022/04/05 10:31:04;;;;;;;16.27;1.42;;;;;;;;;;5050094;28;20036;-61
2022/04/05 10:33:43;;;;;;;12.05;0.77;;;;;;;;;;5047250;28;20553;-60
2022/04/05 10:36:09;;;;;;;12.75;0.90;;;;;;;;;;5045834;28;20076;-62
2022/04/05 10:38:35;;;;;;;13.35;0.98;;;;;;;;;;5044423;28;20054;-61
2022/04/05 10:41:11;;;;;;;10.45;0.88;;;;;;;;;;5028158;28;20120;-62
2022/04/05 10:43:41;;;;;;;11.50;0.80;;;;;;;;;;5043837;28;20037;-61
2022/04/05 10:46:08;;;;;;;13.48;1.13;;;;;;;;;;5045630;28;20087;-61
2022/04/05 10:48:34;;;;;;;12.32;0.95;;;;;;;;;;5048025;28;20076;-61
2022/04/05 10:51:00;;;;;;;10.73;0.90;;;;;;;;;;5044588;28;20043;-61
2022/04/05 10:53:35;;;;;;;11.82;1.20;;;;;;;;;;5044340;28;20042;-62
2022/04/05 10:56:06;;;;;;;11.18;1.33;;;;;;;;;;5045123;28;20110;-61
2022/04/05 10:58:35;;;;;;;8.80;1.20;;;;;;;;;;5048063;28;20573;-62
2022/04/05 11:01:20;;;;;;;8.00;0.60;;;;;;;;;;5045670;28;20090;-62
2022/04/05 11:04:05;;;;;;;8.98;0.75;;;;;;;;;;5042765;28;20049;-61
2022/04/05 11:06:51;;;;;;;8.95;1.02;;;;;;;;;;5044857;28;20094;-62
2022/04/05 11:09:27;;;;;;;9.65;1.55;;;;;;;;;;5045463;28;20037;-60
2022/04/05 11:11:54;;;;;;;10.35;1.20;;;;;;;;;;5046205;28;20122;-61
2022/04/05 11:14:39;;;;;;;7.38;0.88;;;;;;;;;;5047884;28;20028;-63
2022/04/05 11:17:06;;;;;;;8.23;1.00;;;;;;;;;;5046076;28;20436;-61
2022/04/05 11:19:38;;;;;;;6.22;0.85;;;;;;;;;;5045931;28;20581;-62
2022/04/05 11:22:26;;;;;;;7.30;0.70;;;;;;;;;;5049769;28;20094;-61
2022/04/05 11:24:52;;;;;;;8.52;0.80;;;;;;;;;;5050284;28;20052;-61
2022/04/05 11:27:25;;;;;;;9.60;0.73;;;;;;;;;;5051449;28;20059;-60
2022/04/05 11:30:11;;;;;;;5.93;0.90;;;;;;;;;;5050259;28;20048;-61
2022/04/05 11:32:37;;;;;;;9.57;1.00;;;;;;;;;;5050344;28;20120;-62
2022/04/05 11:35:04;;;;;;;13.98;1.50;;;;;;;;;;5050386;28;20075;-63
2022/04/05 11:37:37;;;;;;;7.95;0.90;;;;;;;;;;5051241;28;20076;-63
2022/04/05 11:40:03;;;;;;;6.47;0.77;;;;;;;;;;5051519;28;20094;-63
2022/04/05 11:42:35;;;;;;;7.78;1.17;;;;;;;;;;5049228;28;20098;-62
2022/04/05 11:45:02;;;;;;;4.97;0.77;;;;;;;;;;5049703;28;20047;-62
2022/04/05 11:47:28;;;;;;;6.07;0.80;;;;;;;;;;5049691;28;20136;-61
2022/04/05 11:49:55;;;;;;;6.38;0.98;;;;;;;;;;5047379;28;20481;-63
2022/04/05 11:52:31;;;;;;;8.05;0.90;;;;;;;;;;5032827;28;20451;-62
2022/04/05 11:57:45;;;;;;;4.95;1.08;;;;;;;;;;5038907;28;20058;-61
2022/04/05 12:00:11;;;;;;;8.52;1.25;;;;;;;;;;5029525;28;20049;-62
2022/04/05 12:02:37;;;;;;;8.43;0.73;;;;;;;;;;5050846;28;20051;-63
2022/04/05 12:05:03;;;;;;;7.07;1.17;;;;;;;;;;5032804;28;20080;-62
2022/04/05 12:07:36;;;;;;;5.53;0.82;;;;;;;;;;5050472;28;20037;-62
2022/04/05 12:10:03;;;;;;;4.47;0.50;;;;;;;;;;5032192;28;20329;-63
2022/04/05 12:12:29;;;;;;;1.92;0.73;;;;;;;;;;5049563;28;20049;-62
2022/04/05 12:14:55;;;;;;;3.80;0.60;;;;;;;;;;5031062;28;20114;-61
2022/04/05 12:17:24;;;;;;;4.15;0.50;;;;;;;;;;5049299;28;20041;-62
2022/04/05 12:19:52;;;;;;;3.05;0.50;;;;;;;;;;5032559;28;20087;-62
2022/04/05 12:22:19;;;;;;;2.33;0.50;;;;;;;;;;5049092;28;20037;-62
2022/04/05 12:24:50;;;;;;;3.42;0.60;;;;;;;;;;5049484;28;20041;-60
2022/04/05 12:27:19;;;;;;;3.90;0.40;;;;;;;;;;5032447;28;20080;-62
2022/04/05 12:29:46;;;;;;;1.92;0.50;;;;;;;;;;5030842;28;20038;-62
2022/04/05 12:32:12;;;;;;;2.75;0.50;;;;;;;;;;5050300;28;20048;-61
2022/04/05 12:34:39;;;;;;;5.07;0.50;;;;;;;;;;5065694;28;20044;-61
2022/04/05 12:37:08;;;;;;;3.58;0.50;;;;;;;;;;5047578;28;20046;-61
2022/04/05 12:39:41;;;;;;;3.75;0.40;;;;;;;;;;5050085;28;20064;-61
2022/04/05 12:42:08;;;;;;;4.15;0.60;;;;;;;;;;5048707;28;20403;-60
2022/04/05 12:44:36;;;;;;;3.17;0.55;;;;;;;;;;5050382;28;20425;-61
2022/04/05 12:47:09;;;;;;;5.55;0.80;;;;;;;;;;5049759;28;20063;-62
2022/04/05 12:49:39;;;;;;;2.78;0.57;;;;;;;;;;5032089;28;20076;-60
2022/04/05 12:52:10;;;;;;;5.43;0.80;;;;;;;;;;5048453;28;20094;-61
2022/04/05 12:54:38;;;;;;;4.43;0.63;;;;;;;;;;5048460;28;20099;-61
2022/04/05 12:57:19;;;;;;;5.47;0.98;;;;;;;;;;5049455;28;20052;-60
2022/04/05 12:59:46;;;;;;;3.28;0.88;;;;;;;;;;5048693;28;20045;-62
2022/04/05 13:02:16;;;;;;;4.57;0.80;;;;;;;;;;5049022;28;20120;-61
2022/04/05 13:04:43;;;;;;;3.08;0.90;;;;;;;;;;5048308;28;20087;-60
2022/04/05 13:07:09;;;;;;;2.47;1.08;;;;;;;;;;5048646;28;20037;-61
2022/04/05 13:09:37;;;;;;;2.03;0.90;;;;;;;;;;5048110;28;20621;-62
2022/04/05 13:12:07;;;;;;;2.78;1.08;;;;;;;;;;5048124;28;20120;-61
2022/04/05 13:14:33;;;;;;;3.60;1.05;;;;;;;;;;5047971;28;20582;-62
2022/04/05 13:17:03;;;;;;;3.75;1.17;;;;;;;;;;5049176;28;20117;-61
2022/04/05 13:19:29;;;;;;;3.17;1.20;;;;;;;;;;5049604;28;20037;-61
2022/04/05 13:21:56;;;;;;;3.13;1.30;;;;;;;;;;5050235;28;20410;-62
2022/04/05 13:24:25;;;;;;;2.63;1.13;;;;;;;;;;5050118;28;20045;-61
2022/04/05 13:26:53;;;;;;;3.13;1.50;;;;;;;;;;5048137;28;20041;-61
2022/04/05 13:29:19;;;;;;;4.22;1.50;;;;;;;;;;5030822;28;20045;-62
2022/04/05 13:31:50;;;;;;;3.67;1.70;;;;;;;;;;5031953;28;20048;-62
2022/04/05 13:34:17;;;;;;;6.10;2.45;;;;;;;;;;5046190;28;20041;-63
2022/04/05 13:36:43;;;;;;;5.35;2.33;;;;;;;;;;5048048;28;20044;-62
2022/04/05 13:39:10;;;;;;;5.85;2.88;;;;;;;;;;5047636;28;20411;-62
2022/04/05 13:41:36;;;;;;;4.97;2.80;;;;;;;;;;5047531;28;20841;-61
2022/04/05 13:44:04;;;;;;;6.05;3.67;;;;;;;;;;5048733;28;20083;-63
2022/04/05 13:46:31;;;;;;;4.45;3.30;;;;;;;;;;5049103;28;20140;-62
2022/04/05 13:48:59;;;;;;;4.78;3.17;;;;;;;;;;5047466;28;20507;-62
2022/04/05 13:51:26;;;;;;;10.15;4.10;;;;;;;;;;5061745;28;20040;-62
2022/04/05 13:53:52;;;;;;;12.30;4.72;;;;;;;;;;5048496;28;20044;-63
2022/04/05 13:56:19;;;;;;;12.27;2.58;;;;;;;;;;5047135;28;20095;-62
2022/04/05 13:58:50;;;;;;;16.67;2.72;;;;;;;;;;5031666;28;20056;-63
2022/04/05 14:01:16;;;;;;;12.27;4.47;;;;;;;;;;5048829;28;20041;-62
2022/04/05 14:03:42;;;;;;;13.45;3.85;;;;;;;;;;5030539;28;20041;-63
2022/04/05 14:06:09;;;;;;;29.75;5.07;;;;;;;;;;5047448;28;20036;-63
2022/04/05 14:08:35;;;;;;;12.68;3.00;;;;;;;;;;5046471;28;20037;-64
2022/04/05 14:11:01;;;;;;;13.43;4.07;;;;;;;;;;5046479;28;20081;-62
2022/04/05 14:13:28;;;;;;;16.48;4.30;;;;;;;;;;5029513;28;20033;-63
2022/04/05 14:15:54;;;;;;;16.73;4.20;;;;;;;;;;5048632;28;20045;-63
2022/04/05 14:18:22;;;;;;;13.27;4.03;;;;;;;;;;5029002;28;20049;-62
2022/04/05 14:20:49;;;;;;;17.08;4.10;;;;;;;;;;5056932;28;20048;-62
2022/04/05 14:23:15;;;;;;;13.43;3.88;;;;;;;;;;5047730;28;20502;-63
2022/04/05 14:25:41;;;;;;;13.93;4.07;;;;;;;;;;5045538;28;20049;-63
2022/04/05 14:28:08;;;;;;;7.82;2.55;;;;;;;;;;5047239;28;20036;-62
2022/04/05 14:30:34;;;;;;;13.50;4.20;;;;;;;;;;5047332;28;20106;-62
2022/04/05 14:33:01;;;;;;;8.43;3.72;;;;;;;;;;5047974;28;20086;-62
2022/04/05 14:35:27;;;;;;;14.23;4.90;;;;;;;;;;5046177;28;20150;-63
2022/04/05 14:37:54;;;;;;;10.27;3.63;;;;;;;;;;5047697;28;20047;-62
2022/04/05 14:40:20;;;;;;;15.00;4.85;;;;;;;;;;5048263;28;20411;-62